River Falls, Wisconsin
Current Conditions -  °F | °C
As of 6:10 AM on Monday 20 Oct 2014 (Local Time) from K21D Reporting Station
Clear Clear  
Wind Chill: 42°   Ceiling: Unl
Heat Index: 45°   Visibility: 10mi
Dew Point: 41°   Wind: 5mph
Humidity: 87%   Direction: 300°WNW
Pressure: 29.94"   Gusts: NA
Location:  44.85°N, 92.63°W
Report Text: K21D 201110Z AUTO 30004KT 10SM CLR 07/05 A2994 RMK AO2
Loading
Personal Weather Stations






























Interactive Weather Map
Tropical Storm Tracking
New forecast layout! Learn more

10-Day Weather Forecast

Advertisements
Track Severe Weather on mobile